sensor_id;sensor_type;location;lat;lon;timestamp;pressure;altitude;pressure_sealevel;temperature;humidity
78745;BME280;68064;53.100;8.824;2023-04-03T00:00:51;103399.00;;;0.67;71.63
78745;BME280;68064;53.100;8.824;2023-04-03T00:01:55;103398.25;;;0.61;71.78
78745;BME280;68064;53.100;8.824;2023-04-03T00:03:00;103400.66;;;0.67;71.51
78745;BME280;68064;53.100;8.824;2023-04-03T00:04:01;103398.63;;;0.64;71.21
78745;BME280;68064;53.100;8.824;2023-04-03T00:05:02;103395.63;;;0.67;71.11
78745;BME280;68064;53.100;8.824;2023-04-03T00:06:06;103392.38;;;0.68;71.34
78745;BME280;68064;53.100;8.824;2023-04-03T00:07:06;103392.34;;;0.61;71.58
78745;BME280;68064;53.100;8.824;2023-04-03T00:08:10;103385.28;;;0.58;71.14
78745;BME280;68064;53.100;8.824;2023-04-03T00:09:11;103388.72;;;0.59;71.19
78745;BME280;68064;53.100;8.824;2023-04-03T00:10:15;103400.28;;;0.64;71.94
78745;BME280;68064;53.100;8.824;2023-04-03T00:11:17;103390.59;;;0.67;71.70
78745;BME280;68064;53.100;8.824;2023-04-03T00:12:18;103390.59;;;0.67;71.15
78745;BME280;68064;53.100;8.824;2023-04-03T00:13:19;103398.63;;;0.64;70.83
78745;BME280;68064;53.100;8.824;2023-04-03T00:14:23;103394.34;;;0.63;71.29
78745;BME280;68064;53.100;8.824;2023-04-03T00:15:25;103389.84;;;0.61;70.35
78745;BME280;68064;53.100;8.824;2023-04-03T00:16:25;103388.34;;;0.56;71.11
78745;BME280;68064;53.100;8.824;2023-04-03T00:17:28;103382.75;;;0.51;70.96
78745;BME280;68064;53.100;8.824;2023-04-03T00:18:33;103387.38;;;0.48;71.09
78745;BME280;68064;53.100;8.824;2023-04-03T00:19:34;103387.06;;;0.52;70.53
78745;BME280;68064;53.100;8.824;2023-04-03T00:20:35;103387.78;;;0.51;71.22
78745;BME280;68064;53.100;8.824;2023-04-03T00:21:36;103389.41;;;0.50;71.05
78745;BME280;68064;53.100;8.824;2023-04-03T00:22:40;103399.50;;;0.50;71.74
78745;BME280;68064;53.100;8.824;2023-04-03T00:23:46;103392.97;;;0.45;71.06
78745;BME280;68064;53.100;8.824;2023-04-03T00:24:48;103393.88;;;0.46;70.85
78745;BME280;68064;53.100;8.824;2023-04-03T00:25:49;103392.41;;;0.41;70.79
78745;BME280;68064;53.100;8.824;2023-04-03T00:26:50;103396.91;;;0.43;71.23
78745;BME280;68064;53.100;8.824;2023-04-03T00:27:54;103393.66;;;0.37;71.00
78745;BME280;68064;53.100;8.824;2023-04-03T00:28:55;103386.63;;;0.35;70.91
78745;BME280;68064;53.100;8.824;2023-04-03T00:29:59;103396.16;;;0.37;71.66
78745;BME280;68064;53.100;8.824;2023-04-03T00:31:03;103399.22;;;0.42;71.25
78745;BME280;68064;53.100;8.824;2023-04-03T00:32:05;103398.69;;;0.37;72.14
78745;BME280;68064;53.100;8.824;2023-04-03T00:33:11;103409.13;;;0.40;71.94
78745;BME280;68064;53.100;8.824;2023-04-03T00:34:17;103388.59;;;0.37;71.41
78745;BME280;68064;53.100;8.824;2023-04-03T00:35:22;103404.16;;;0.47;71.60
78745;BME280;68064;53.100;8.824;2023-04-03T00:36:23;103404.31;;;0.49;71.65
78745;BME280;68064;53.100;8.824;2023-04-03T00:37:28;103406.31;;;0.51;71.74
78745;BME280;68064;53.100;8.824;2023-04-03T00:38:29;103412.25;;;0.52;71.64
78745;BME280;68064;53.100;8.824;2023-04-03T00:39:32;103408.44;;;0.48;71.79
78745;BME280;68064;53.100;8.824;2023-04-03T00:40:34;103412.03;;;0.43;71.52
78745;BME280;68064;53.100;8.824;2023-04-03T00:41:36;103416.88;;;0.42;71.76
78745;BME280;68064;53.100;8.824;2023-04-03T00:42:39;103417.78;;;0.42;71.92
78745;BME280;68064;53.100;8.824;2023-04-03T00:43:43;103412.34;;;0.39;72.01
78745;BME280;68064;53.100;8.824;2023-04-03T00:45:26;103411.13;;;0.43;71.66
78745;BME280;68064;53.100;8.824;2023-04-03T00:46:27;103414.88;;;0.39;71.61
78745;BME280;68064;53.100;8.824;2023-04-03T00:47:29;103416.00;;;0.41;72.21
78745;BME280;68064;53.100;8.824;2023-04-03T00:48:34;103418.50;;;0.41;72.05
78745;BME280;68064;53.100;8.824;2023-04-03T00:49:37;103421.53;;;0.39;71.27
78745;BME280;68064;53.100;8.824;2023-04-03T00:50:40;103418.31;;;0.40;71.69
78745;BME280;68064;53.100;8.824;2023-04-03T00:51:42;103424.25;;;0.40;71.57
78745;BME280;68064;53.100;8.824;2023-04-03T00:52:44;103419.75;;;0.38;71.80
78745;BME280;68064;53.100;8.824;2023-04-03T00:53:47;103414.69;;;0.38;71.62
78745;BME280;68064;53.100;8.824;2023-04-03T00:54:51;103416.31;;;0.37;71.71
78745;BME280;68064;53.100;8.824;2023-04-03T00:55:55;103417.00;;;0.36;71.75
78745;BME280;68064;53.100;8.824;2023-04-03T00:56:59;103405.66;;;0.33;71.81
78745;BME280;68064;53.100;8.824;2023-04-03T00:58:01;103416.63;;;0.33;71.56
78745;BME280;68064;53.100;8.824;2023-04-03T00:59:06;103415.94;;;0.34;71.79
78745;BME280;68064;53.100;8.824;2023-04-03T01:00:11;103415.03;;;0.34;71.37
78745;BME280;68064;53.100;8.824;2023-04-03T01:01:16;103412.88;;;0.37;70.78
78745;BME280;68064;53.100;8.824;2023-04-03T01:02:19;103424.97;;;0.20;73.96
78745;BME280;68064;53.100;8.824;2023-04-03T01:03:20;103410.97;;;0.22;72.20
78745;BME280;68064;53.100;8.824;2023-04-03T01:04:28;103416.56;;;0.26;72.18
78745;BME280;68064;53.100;8.824;2023-04-03T01:05:29;103425.03;;;0.27;71.63
78745;BME280;68064;53.100;8.824;2023-04-03T01:06:32;103412.44;;;0.27;71.92
78745;BME280;68064;53.100;8.824;2023-04-03T01:07:40;103418.19;;;0.26;71.69
78745;BME280;68064;53.100;8.824;2023-04-03T01:08:41;103400.72;;;0.20;71.55
78745;BME280;68064;53.100;8.824;2023-04-03T01:09:45;103422.84;;;0.23;72.20
78745;BME280;68064;53.100;8.824;2023-04-03T01:10:50;103411.91;;;0.22;71.72
78745;BME280;68064;53.100;8.824;2023-04-03T01:11:51;103420.16;;;0.21;72.05
78745;BME280;68064;53.100;8.824;2023-04-03T01:12:52;103421.56;;;0.19;71.55
78745;BME280;68064;53.100;8.824;2023-04-03T01:13:53;103408.19;;;0.13;71.79
78745;BME280;68064;53.100;8.824;2023-04-03T01:14:58;103425.34;;;0.16;71.36
78745;BME280;68064;53.100;8.824;2023-04-03T01:16:00;103416.50;;;0.12;71.51
78745;BME280;68064;53.100;8.824;2023-04-03T01:17:02;103416.50;;;0.12;71.62
78745;BME280;68064;53.100;8.824;2023-04-03T01:18:03;103419.72;;;0.11;72.04
78745;BME280;68064;53.100;8.824;2023-04-03T01:19:08;103430.16;;;0.14;71.90
78745;BME280;68064;53.100;8.824;2023-04-03T01:22:07;103427.97;;;0.10;72.08
78745;BME280;68064;53.100;8.824;2023-04-03T01:23:27;103432.81;;;0.09;71.68
78745;BME280;68064;53.100;8.824;2023-04-03T01:24:32;103433.13;;;0.05;71.64
78745;BME280;68064;53.100;8.824;2023-04-03T01:25:34;103431.31;;;0.04;71.90
78745;BME280;68064;53.100;8.824;2023-04-03T01:26:36;103432.75;;;0.02;71.71
78745;BME280;68064;53.100;8.824;2023-04-03T01:27:37;103435.47;;;0.03;71.99
78745;BME280;68064;53.100;8.824;2023-04-03T01:28:38;103435.66;;;0.05;71.49
78745;BME280;68064;53.100;8.824;2023-04-03T01:29:40;103437.78;;;0.02;71.64
78745;BME280;68064;53.100;8.824;2023-04-03T01:30:45;103440.13;;;0.00;71.78
78745;BME280;68064;53.100;8.824;2023-04-03T01:31:53;103435.81;;;-0.01;71.93
78745;BME280;68064;53.100;8.824;2023-04-03T01:32:58;103426.75;;;-0.06;71.48
78745;BME280;68064;53.100;8.824;2023-04-03T01:33:59;103439.72;;;-0.03;72.12
78745;BME280;68064;53.100;8.824;2023-04-03T01:35:03;103439.53;;;-0.05;71.79
78745;BME280;68064;53.100;8.824;2023-04-03T01:36:05;103435.56;;;-0.10;72.02
78745;BME280;68064;53.100;8.824;2023-04-03T01:37:06;103440.06;;;-0.07;72.01
78745;BME280;68064;53.100;8.824;2023-04-03T01:38:10;103445.09;;;-0.07;72.18
78745;BME280;68064;53.100;8.824;2023-04-03T01:39:11;103430.09;;;-0.13;71.67
78745;BME280;68064;53.100;8.824;2023-04-03T01:40:15;103437.78;;;-0.18;73.07
78745;BME280;68064;53.100;8.824;2023-04-03T01:41:17;103446.63;;;-0.15;72.22
78745;BME280;68064;53.100;8.824;2023-04-03T01:42:18;103445.72;;;-0.15;72.14
78745;BME280;68064;53.100;8.824;2023-04-03T01:43:19;103448.25;;;-0.15;71.77
78745;BME280;68064;53.100;8.824;2023-04-03T01:44:20;103442.13;;;-0.17;72.01
78745;BME280;68064;53.100;8.824;2023-04-03T01:45:21;103443.72;;;-0.18;72.76
78745;BME280;68064;53.100;8.824;2023-04-03T01:46:22;103454.50;;;-0.19;72.30
78745;BME280;68064;53.100;8.824;2023-04-03T01:47:25;103443.13;;;-0.22;72.64
78745;BME280;68064;53.100;8.824;2023-04-03T01:48:26;103446.94;;;-0.19;71.84
78745;BME280;68064;53.100;8.824;2023-04-03T01:49:27;103440.81;;;-0.21;72.36
78745;BME280;68064;53.100;8.824;2023-04-03T01:50:28;103447.69;;;-0.20;72.03
78745;BME280;68064;53.100;8.824;2023-04-03T01:51:32;103445.66;;;-0.22;72.00
78745;BME280;68064;53.100;8.824;2023-04-03T01:52:33;103446.56;;;-0.22;72.50
78745;BME280;68064;53.100;8.824;2023-04-03T01:53:37;103441.34;;;-0.23;72.24
78745;BME280;68064;53.100;8.824;2023-04-03T01:54:40;103441.88;;;-0.26;71.99
78745;BME280;68064;53.100;8.824;2023-04-03T01:55:41;103445.47;;;-0.24;72.60
78745;BME280;68064;53.100;8.824;2023-04-03T01:56:44;103451.19;;;-0.25;72.79
78745;BME280;68064;53.100;8.824;2023-04-03T01:57:45;103446.16;;;-0.25;72.46
78745;BME280;68064;53.100;8.824;2023-04-03T01:58:46;103441.28;;;-0.30;72.01
78745;BME280;68064;53.100;8.824;2023-04-03T01:59:47;103440.97;;;-0.26;71.97
78745;BME280;68064;53.100;8.824;2023-04-03T02:00:48;103450.63;;;-0.29;72.06
78745;BME280;68064;53.100;8.824;2023-04-03T02:01:49;103446.63;;;-0.34;73.46
78745;BME280;68064;53.100;8.824;2023-04-03T02:02:53;103450.94;;;-0.33;72.42
78745;BME280;68064;53.100;8.824;2023-04-03T02:03:56;103451.84;;;-0.33;72.66
78745;BME280;68064;53.100;8.824;2023-04-03T02:04:58;103447.00;;;-0.31;72.63
78745;BME280;68064;53.100;8.824;2023-04-03T02:06:01;103447.34;;;-0.35;72.41
78745;BME280;68064;53.100;8.824;2023-04-03T02:07:04;103453.38;;;-0.40;73.68
78745;BME280;68064;53.100;8.824;2023-04-03T02:08:07;103455.50;;;-0.43;74.32
78745;BME280;68064;53.100;8.824;2023-04-03T02:09:08;103458.03;;;-0.43;73.91
78745;BME280;68064;53.100;8.824;2023-04-03T02:10:10;103443.22;;;-0.47;73.34
78745;BME280;68064;53.100;8.824;2023-04-03T02:11:11;103454.50;;;-0.38;72.54
78745;BME280;68064;53.100;8.824;2023-04-03T02:12:12;103454.97;;;-0.41;72.52
78745;BME280;68064;53.100;8.824;2023-04-03T02:13:16;103442.53;;;-0.46;72.23
78745;BME280;68064;53.100;8.824;2023-04-03T02:14:17;103457.31;;;-0.42;72.35
78745;BME280;68064;53.100;8.824;2023-04-03T02:15:18;103461.56;;;-0.48;73.34
78745;BME280;68064;53.100;8.824;2023-04-03T02:16:19;103421.97;;;-0.69;72.37
78745;BME280;68064;53.100;8.824;2023-04-03T02:17:21;103457.84;;;-0.45;72.87
78745;BME280;68064;53.100;8.824;2023-04-03T02:18:24;103456.19;;;-0.44;72.50
78745;BME280;68064;53.100;8.824;2023-04-03T02:19:25;103460.53;;;-0.43;72.82
78745;BME280;68064;53.100;8.824;2023-04-03T02:20:26;103457.84;;;-0.45;72.31
78745;BME280;68064;53.100;8.824;2023-04-03T02:21:27;103460.34;;;-0.45;72.88
78745;BME280;68064;53.100;8.824;2023-04-03T02:22:29;103452.81;;;-0.45;72.15
78745;BME280;68064;53.100;8.824;2023-04-03T02:23:33;103452.28;;;-0.42;72.66
78745;BME280;68064;53.100;8.824;2023-04-03T02:24:35;103445.06;;;-0.46;72.19
78745;BME280;68064;53.100;8.824;2023-04-03T02:25:36;103451.91;;;-0.45;72.53
78745;BME280;68064;53.100;8.824;2023-04-03T02:26:37;103455.31;;;-0.45;72.39
78745;BME280;68064;53.100;8.824;2023-04-03T02:27:38;103451.50;;;-0.48;72.06
78745;BME280;68064;53.100;8.824;2023-04-03T02:28:43;103452.59;;;-0.46;72.28
78745;BME280;68064;53.100;8.824;2023-04-03T02:29:44;103461.34;;;-0.50;71.92
78745;BME280;68064;53.100;8.824;2023-04-03T02:30:47;103453.81;;;-0.50;72.48
78745;BME280;68064;53.100;8.824;2023-04-03T02:31:49;103456.84;;;-0.52;71.96
78745;BME280;68064;53.100;8.824;2023-04-03T02:32:50;103460.28;;;-0.52;72.54
78745;BME280;68064;53.100;8.824;2023-04-03T02:33:53;103452.91;;;-0.50;72.41
78745;BME280;68064;53.100;8.824;2023-04-03T02:34:54;103457.03;;;-0.51;72.23
78745;BME280;68064;53.100;8.824;2023-04-03T02:35:57;103461.19;;;-0.51;72.50
78745;BME280;68064;53.100;8.824;2023-04-03T02:36:58;103464.41;;;-0.52;72.47
78745;BME280;68064;53.100;8.824;2023-04-03T02:38:01;103457.16;;;-0.57;72.17
78745;BME280;68064;53.100;8.824;2023-04-03T02:39:05;103454.63;;;-0.57;71.97
78745;BME280;68064;53.100;8.824;2023-04-03T02:40:09;103458.75;;;-0.57;72.47
78745;BME280;68064;53.100;8.824;2023-04-03T02:41:11;103450.81;;;-0.60;72.54
78745;BME280;68064;53.100;8.824;2023-04-03T02:42:13;103461.28;;;-0.57;72.16
78745;BME280;68064;53.100;8.824;2023-04-03T02:43:14;103458.19;;;-0.62;72.82
78745;BME280;68064;53.100;8.824;2023-04-03T02:44:15;103461.78;;;-0.60;72.89
78745;BME280;68064;53.100;8.824;2023-04-03T02:45:16;103457.47;;;-0.61;72.24
78745;BME280;68064;53.100;8.824;2023-04-03T02:46:17;103460.88;;;-0.60;71.87
78745;BME280;68064;53.100;8.824;2023-04-03T02:47:18;103454.53;;;-0.64;72.45
78745;BME280;68064;53.100;8.824;2023-04-03T02:48:23;103450.94;;;-0.66;72.59
78745;BME280;68064;53.100;8.824;2023-04-03T02:49:25;103451.25;;;-0.70;72.47
78745;BME280;68064;53.100;8.824;2023-04-03T02:50:28;103457.78;;;-0.65;72.42
78745;BME280;68064;53.100;8.824;2023-04-03T02:51:29;103454.16;;;-0.67;72.72
78745;BME280;68064;53.100;8.824;2023-04-03T02:52:30;103456.50;;;-0.68;72.83
78745;BME280;68064;53.100;8.824;2023-04-03T02:53:37;103458.31;;;-0.67;72.44
78745;BME280;68064;53.100;8.824;2023-04-03T02:54:38;103474.28;;;-0.67;72.62
78745;BME280;68064;53.100;8.824;2023-04-03T02:55:39;103461.81;;;-0.72;72.76
78745;BME280;68064;53.100;8.824;2023-04-03T02:56:43;103459.13;;;-0.74;72.80
78745;BME280;68064;53.100;8.824;2023-04-03T02:57:44;103465.25;;;-0.72;72.84
78745;BME280;68064;53.100;8.824;2023-04-03T02:58:45;103454.56;;;-0.76;72.65
78745;BME280;68064;53.100;8.824;2023-04-03T02:59:47;103465.94;;;-0.73;72.76
78745;BME280;68064;53.100;8.824;2023-04-03T03:00:48;103458.00;;;-0.76;72.75
78745;BME280;68064;53.100;8.824;2023-04-03T03:01:49;103458.00;;;-0.76;72.41
78745;BME280;68064;53.100;8.824;2023-04-03T03:02:52;103463.03;;;-0.76;72.32
78745;BME280;68064;53.100;8.824;2023-04-03T03:03:53;103460.34;;;-0.77;72.06
78745;BME280;68064;53.100;8.824;2023-04-03T03:04:56;103460.34;;;-0.77;72.12
78745;BME280;68064;53.100;8.824;2023-04-03T03:06:02;103464.44;;;-0.78;72.83
78745;BME280;68064;53.100;8.824;2023-04-03T03:07:03;103460.81;;;-0.80;72.69
78745;BME280;68064;53.100;8.824;2023-04-03T03:08:04;103456.50;;;-0.81;72.88
78745;BME280;68064;53.100;8.824;2023-04-03T03:09:06;103466.75;;;-0.79;72.50
78745;BME280;68064;53.100;8.824;2023-04-03T03:10:08;103463.34;;;-0.80;72.79
78745;BME280;68064;53.100;8.824;2023-04-03T03:11:11;103458.63;;;-0.84;72.98
78745;BME280;68064;53.100;8.824;2023-04-03T03:12:12;103466.34;;;-0.82;73.12
78745;BME280;68064;53.100;8.824;2023-04-03T03:13:14;103463.97;;;-0.88;74.38
78745;BME280;68064;53.100;8.824;2023-04-03T03:14:15;103465.78;;;-0.87;73.32
78745;BME280;68064;53.100;8.824;2023-04-03T03:15:16;103469.38;;;-0.85;73.30
78745;BME280;68064;53.100;8.824;2023-04-03T03:16:17;103466.88;;;-0.85;72.90
78745;BME280;68064;53.100;8.824;2023-04-03T03:17:19;103465.28;;;-0.84;73.32
78745;BME280;68064;53.100;8.824;2023-04-03T03:18:21;103460.34;;;-0.90;73.51
78745;BME280;68064;53.100;8.824;2023-04-03T03:19:22;103473.31;;;-0.87;73.49
78745;BME280;68064;53.100;8.824;2023-04-03T03:20:25;103466.47;;;-0.88;73.09
78745;BME280;68064;53.100;8.824;2023-04-03T03:21:26;103462.34;;;-0.87;73.49
78745;BME280;68064;53.100;8.824;2023-04-03T03:22:28;103464.66;;;-0.89;73.07
78745;BME280;68064;53.100;8.824;2023-04-03T03:23:31;103467.91;;;-0.90;72.67
78745;BME280;68064;53.100;8.824;2023-04-03T03:24:32;103466.06;;;-0.91;72.61
78745;BME280;68064;53.100;8.824;2023-04-03T03:25:37;103465.69;;;-0.94;73.87
78745;BME280;68064;53.100;8.824;2023-04-03T03:26:38;103472.53;;;-0.93;73.53
78745;BME280;68064;53.100;8.824;2023-04-03T03:27:40;103473.41;;;-0.92;72.82
78745;BME280;68064;53.100;8.824;2023-04-03T03:28:41;103471.41;;;-0.95;73.58
78745;BME280;68064;53.100;8.824;2023-04-03T03:29:42;103465.28;;;-0.97;73.70
78745;BME280;68064;53.100;8.824;2023-04-03T03:30:43;103473.00;;;-0.95;73.02
78745;BME280;68064;53.100;8.824;2023-04-03T03:31:44;103467.81;;;-0.97;73.51
78745;BME280;68064;53.100;8.824;2023-04-03T03:32:45;103460.25;;;-0.97;73.01
78745;BME280;68064;53.100;8.824;2023-04-03T03:33:46;103465.41;;;-1.02;73.32
78745;BME280;68064;53.100;8.824;2023-04-03T03:34:47;103470.09;;;-0.98;73.66
78745;BME280;68064;53.100;8.824;2023-04-03T03:35:50;103466.28;;;-1.02;73.69
78745;BME280;68064;53.100;8.824;2023-04-03T03:36:52;103465.78;;;-0.99;73.01
78745;BME280;68064;53.100;8.824;2023-04-03T03:37:53;103463.75;;;-1.02;73.51
78745;BME280;68064;53.100;8.824;2023-04-03T03:38:54;103470.59;;;-1.01;73.74
78745;BME280;68064;53.100;8.824;2023-04-03T03:39:55;103463.75;;;-1.02;72.78
78745;BME280;68064;53.100;8.824;2023-04-03T03:40:56;103475.94;;;-1.05;73.22
78745;BME280;68064;53.100;8.824;2023-04-03T03:41:58;103461.59;;;-1.06;72.85
78745;BME280;68064;53.100;8.824;2023-04-03T03:42:59;103466.78;;;-1.04;73.09
78745;BME280;68064;53.100;8.824;2023-04-03T03:44:00;103473.03;;;-1.08;74.16
78745;BME280;68064;53.100;8.824;2023-04-03T03:45:01;103465.06;;;-1.11;73.74
78745;BME280;68064;53.100;8.824;2023-04-03T03:46:03;103467.00;;;-1.16;74.32
78745;BME280;68064;53.100;8.824;2023-04-03T03:47:07;103464.91;;;-1.13;73.71
78745;BME280;68064;53.100;8.824;2023-04-03T03:48:08;103472.44;;;-1.13;73.88
78745;BME280;68064;53.100;8.824;2023-04-03T03:49:09;103473.34;;;-1.12;73.79
78745;BME280;68064;53.100;8.824;2023-04-03T03:50:10;103472.44;;;-1.13;73.33
78745;BME280;68064;53.100;8.824;2023-04-03T03:51:17;103466.50;;;-1.13;73.59
78745;BME280;68064;53.100;8.824;2023-04-03T03:52:18;103470.63;;;-1.14;73.64
78745;BME280;68064;53.100;8.824;2023-04-03T03:53:22;103463.59;;;-1.16;73.67
78745;BME280;68064;53.100;8.824;2023-04-03T03:54:23;103463.78;;;-1.15;73.96
78745;BME280;68064;53.100;8.824;2023-04-03T03:55:24;103467.91;;;-1.15;74.05
78745;BME280;68064;53.100;8.824;2023-04-03T03:56:25;103471.31;;;-1.15;73.00
78745;BME280;68064;53.100;8.824;2023-04-03T03:57:26;103468.63;;;-1.16;73.30
78745;BME280;68064;53.100;8.824;2023-04-03T03:58:27;103476.16;;;-1.16;73.73
78745;BME280;68064;53.100;8.824;2023-04-03T03:59:29;103467.53;;;-1.18;73.41
78745;BME280;68064;53.100;8.824;2023-04-03T04:00:30;103468.91;;;-1.20;73.58
78745;BME280;68064;53.100;8.824;2023-04-03T04:01:31;103480.78;;;-1.19;73.15
78745;BME280;68064;53.100;8.824;2023-04-03T04:02:36;103466.22;;;-1.22;73.97
78745;BME280;68064;53.100;8.824;2023-04-03T04:03:37;103472.84;;;-1.22;73.37
78745;BME280;68064;53.100;8.824;2023-04-03T04:04:38;103474.03;;;-1.26;73.88
78745;BME280;68064;53.100;8.824;2023-04-03T04:05:41;103474.22;;;-1.24;73.62
78745;BME280;68064;53.100;8.824;2023-04-03T04:06:46;103472.50;;;-1.31;74.37
78745;BME280;68064;53.100;8.824;2023-04-03T04:07:48;103476.66;;;-1.31;75.08
78745;BME280;68064;53.100;8.824;2023-04-03T04:08:49;103478.44;;;-1.30;74.19
78745;BME280;68064;53.100;8.824;2023-04-03T04:09:50;103478.94;;;-1.33;73.96
78745;BME280;68064;53.100;8.824;2023-04-03T04:10:51;103484.88;;;-1.32;73.97
78745;BME280;68064;53.100;8.824;2023-04-03T04:11:53;103484.19;;;-1.31;73.70
78745;BME280;68064;53.100;8.824;2023-04-03T04:12:54;103481.28;;;-1.34;74.10
78745;BME280;68064;53.100;8.824;2023-04-03T04:13:55;103482.16;;;-1.34;73.78
78745;BME280;68064;53.100;8.824;2023-04-03T04:14:56;103482.88;;;-1.35;73.38
78745;BME280;68064;53.100;8.824;2023-04-03T04:15:57;103472.72;;;-1.42;74.01
78745;BME280;68064;53.100;8.824;2023-04-03T04:16:58;103482.66;;;-1.36;73.93
78745;BME280;68064;53.100;8.824;2023-04-03T04:17:59;103483.88;;;-1.40;74.21
78745;BME280;68064;53.100;8.824;2023-04-03T04:19:01;103488.47;;;-1.43;75.01
78745;BME280;68064;53.100;8.824;2023-04-03T04:20:02;103486.88;;;-1.42;74.21
78745;BME280;68064;53.100;8.824;2023-04-03T04:21:03;103492.59;;;-1.43;74.06
78745;BME280;68064;53.100;8.824;2023-04-03T04:22:06;103483.97;;;-1.45;74.25
78745;BME280;68064;53.100;8.824;2023-04-03T04:23:07;103489.00;;;-1.45;73.76
78745;BME280;68064;53.100;8.824;2023-04-03T04:24:08;103482.66;;;-1.49;73.83
78745;BME280;68064;53.100;8.824;2023-04-03T04:25:09;103492.69;;;-1.49;73.83
78745;BME280;68064;53.100;8.824;2023-04-03T04:26:11;103493.19;;;-1.51;74.12
78745;BME280;68064;53.100;8.824;2023-04-03T04:27:12;103493.19;;;-1.51;73.71
78745;BME280;68064;53.100;8.824;2023-04-03T04:28:13;103497.13;;;-1.53;73.87
78745;BME280;68064;53.100;8.824;2023-04-03T04:29:14;103493.50;;;-1.55;74.18
78745;BME280;68064;53.100;8.824;2023-04-03T04:30:15;103501.75;;;-1.56;73.45
78745;BME280;68064;53.100;8.824;2023-04-03T04:31:16;103496.50;;;-1.58;73.92
78745;BME280;68064;53.100;8.824;2023-04-03T04:32:18;103501.31;;;-1.60;73.98
78745;BME280;68064;53.100;8.824;2023-04-03T04:33:19;103496.09;;;-1.61;74.21
78745;BME280;68064;53.100;8.824;2023-04-03T04:34:20;103500.22;;;-1.62;73.37
78745;BME280;68064;53.100;8.824;2023-04-03T04:35:22;103495.00;;;-1.63;73.73
78745;BME280;68064;53.100;8.824;2023-04-03T04:36:23;103503.22;;;-1.64;74.04
78745;BME280;68064;53.100;8.824;2023-04-03T04:37:25;103499.81;;;-1.65;73.78
78745;BME280;68064;53.100;8.824;2023-04-03T04:38:27;103497.97;;;-1.66;73.80
78745;BME280;68064;53.100;8.824;2023-04-03T04:39:28;103505.31;;;-1.67;73.04
78745;BME280;68064;53.100;8.824;2023-04-03T04:40:29;103506.69;;;-1.69;74.38
78745;BME280;68064;53.100;8.824;2023-04-03T04:41:30;103503.09;;;-1.71;74.66
78745;BME280;68064;53.100;8.824;2023-04-03T04:42:32;103504.28;;;-1.75;73.58
78745;BME280;68064;53.100;8.824;2023-04-03T04:43:33;103505.88;;;-1.75;74.04
78745;BME280;68064;53.100;8.824;2023-04-03T04:44:34;103512.72;;;-1.74;75.10
78745;BME280;68064;53.100;8.824;2023-04-03T04:45:35;103500.28;;;-1.80;73.92
78745;BME280;68064;53.100;8.824;2023-04-03T04:46:36;103514.34;;;-1.75;74.47
78745;BME280;68064;53.100;8.824;2023-04-03T04:47:37;103504.78;;;-1.77;78.13
78745;BME280;68064;53.100;8.824;2023-04-03T04:48:38;103516.25;;;-1.79;77.19
78745;BME280;68064;53.100;8.824;2023-04-03T04:49:40;103512.41;;;-1.83;77.86
78745;BME280;68064;53.100;8.824;2023-04-03T04:50:41;103514.28;;;-1.87;77.91
78745;BME280;68064;53.100;8.824;2023-04-03T04:51:42;103507.25;;;-1.90;76.12
78745;BME280;68064;53.100;8.824;2023-04-03T04:52:47;103515.69;;;-1.89;75.55
78745;BME280;68064;53.100;8.824;2023-04-03T04:53:48;103514.09;;;-1.89;74.85
78745;BME280;68064;53.100;8.824;2023-04-03T04:54:49;103512.50;;;-1.88;77.78
78745;BME280;68064;53.100;8.824;2023-04-03T04:55:51;103521.41;;;-1.90;76.04
78745;BME280;68064;53.100;8.824;2023-04-03T04:56:52;103515.28;;;-1.92;75.60
78745;BME280;68064;53.100;8.824;2023-04-03T04:57:53;103514.38;;;-1.93;75.32
78745;BME280;68064;53.100;8.824;2023-04-03T04:58:54;103515.97;;;-1.93;74.98
78745;BME280;68064;53.100;8.824;2023-04-03T04:59:55;103518.72;;;-1.92;77.92
78745;BME280;68064;53.100;8.824;2023-04-03T05:01:00;103519.00;;;-1.96;78.27
78745;BME280;68064;53.100;8.824;2023-04-03T05:02:01;103518.75;;;-1.97;79.67
78745;BME280;68064;53.100;8.824;2023-04-03T05:03:02;103530.22;;;-1.99;76.99
78745;BME280;68064;53.100;8.824;2023-04-03T05:04:03;103521.78;;;-2.00;77.06
78745;BME280;68064;53.100;8.824;2023-04-03T05:05:05;103524.97;;;-2.01;75.65
78745;BME280;68064;53.100;8.824;2023-04-03T05:06:06;103524.97;;;-2.01;75.49
78745;BME280;68064;53.100;8.824;2023-04-03T05:07:07;103523.19;;;-2.02;76.40
78745;BME280;68064;53.100;8.824;2023-04-03T05:08:09;103525.47;;;-2.03;75.74
78745;BME280;68064;53.100;8.824;2023-04-03T05:09:10;103522.47;;;-2.01;75.31
78745;BME280;68064;53.100;8.824;2023-04-03T05:10:11;103528.19;;;-2.02;75.32
78745;BME280;68064;53.100;8.824;2023-04-03T05:11:13;103520.25;;;-2.05;75.04
78745;BME280;68064;53.100;8.824;2023-04-03T05:12:13;103527.28;;;-2.02;74.45
78745;BME280;68064;53.100;8.824;2023-04-03T05:13:15;103528.19;;;-2.02;74.82
78745;BME280;68064;53.100;8.824;2023-04-03T05:14:16;103519.13;;;-2.07;74.72
78745;BME280;68064;53.100;8.824;2023-04-03T05:15:17;103528.69;;;-2.04;74.30
78745;BME280;68064;53.100;8.824;2023-04-03T05:16:18;103535.50;;;-2.03;74.56
78745;BME280;68064;53.100;8.824;2023-04-03T05:17:19;103538.75;;;-2.04;74.32
78745;BME280;68064;53.100;8.824;2023-04-03T05:18:20;103530.97;;;-2.06;74.23
78745;BME280;68064;53.100;8.824;2023-04-03T05:19:21;103533.06;;;-2.09;75.13
78745;BME280;68064;53.100;8.824;2023-04-03T05:20:22;103533.31;;;-2.07;74.51
78745;BME280;68064;53.100;8.824;2023-04-03T05:21:23;103533.06;;;-2.09;74.58
78745;BME280;68064;53.100;8.824;2023-04-03T05:22:24;103542.44;;;-2.08;74.74
78745;BME280;68064;53.100;8.824;2023-04-03T05:23:27;103532.84;;;-2.10;74.26
78745;BME280;68064;53.100;8.824;2023-04-03T05:24:28;103528.34;;;-2.13;75.17
78745;BME280;68064;53.100;8.824;2023-04-03T05:25:30;103538.19;;;-2.15;74.26
78745;BME280;68064;53.100;8.824;2023-04-03T05:26:31;103531.56;;;-2.14;74.37
78745;BME280;68064;53.100;8.824;2023-04-03T05:27:32;103533.16;;;-2.15;74.52
78745;BME280;68064;53.100;8.824;2023-04-03T05:28:33;103529.53;;;-2.17;74.64